Wetterdaten: Woche 07.12.09 - 13.12.09 (KW50)
Datum Zeit Temperatur Luftfeuchte Luftdruck Niederschlag Windrichtung Wind
07.12.2009 00:00 6,7 C 94 % 1014,3 hPa 0,2 l/m SW 10,9 km/h (2 Bft)
07.12.2009 01:00 6,2 C 95 % 1014,2 hPa 0,2 l/m SW 10,3 km/h (2 Bft)
07.12.2009 02:00 6,4 C 97 % 1014,3 hPa 0,0 l/m W-SW 13,4 km/h (3 Bft)
07.12.2009 03:00 6,6 C 95 % 1014,5 hPa 0,0 l/m SW 14,0 km/h (3 Bft)
07.12.2009 04:00 6,6 C 94 % 1014,7 hPa 0,0 l/m SW 18,6 km/h (3 Bft)
07.12.2009 05:00 6,3 C 95 % 1014,8 hPa 0,0 l/m SW 16,2 km/h (3 Bft)
07.12.2009 06:00 6,3 C 97 % 1015,1 hPa 0,0 l/m SO 4,9 km/h (1 Bft)
07.12.2009 07:00 6,2 C 97 % 1015,1 hPa 0,0 l/m SO 6,2 km/h (2 Bft)
07.12.2009 08:00 6,2 C 98 % 1015,1 hPa 0,0 l/m S 6,1 km/h (2 Bft)
07.12.2009 09:00 6,5 C 98 % 1014,9 hPa 0,0 l/m S-SW 4,1 km/h (1 Bft)
07.12.2009 10:00 7,1 C 99 % 1014,6 hPa 0,0 l/m S-SW 9,1 km/h (2 Bft)
07.12.2009 11:00 7,5 C 99 % 1014,2 hPa 0,0 l/m S 3,2 km/h (1 Bft)
07.12.2009 12:00 8,0 C 99 % 1013,8 hPa 0,0 l/m S 3,9 km/h (1 Bft)
07.12.2009 13:00 8,3 C 98 % 1013,3 hPa 0,0 l/m S 1,7 km/h (1 Bft)
07.12.2009 14:00 8,7 C 97 % 1012,7 hPa 0,0 l/m S 4,5 km/h (1 Bft)
07.12.2009 15:00 8,4 C 96 % 1012,3 hPa 1,2 l/m SW 5,3 km/h (1 Bft)
07.12.2009 16:00 7,8 C 96 % 1011,9 hPa 0,2 l/m SW 3,2 km/h (1 Bft)
07.12.2009 17:00 7,2 C 96 % 1011,5 hPa 0,4 l/m N 0,3 km/h (0 Bft)
07.12.2009 18:00 7,0 C 97 % 1011,2 hPa 0,4 l/m SW 2,0 km/h (1 Bft)
07.12.2009 19:00 7,3 C 98 % 1011,2 hPa 1,2 l/m SW 8,6 km/h (2 Bft)
07.12.2009 20:00 7,2 C 98 % 1010,7 hPa 0,6 l/m SW 8,7 km/h (2 Bft)
07.12.2009 21:00 6,7 C 98 % 1010,0 hPa 0,0 l/m S-SW 9,8 km/h (2 Bft)
07.12.2009 22:00 6,3 C 98 % 1009,2 hPa 0,0 l/m S-SW 6,7 km/h (2 Bft)
07.12.2009 23:00 5,9 C 98 % 1008,6 hPa 0,0 l/m SW 4,7 km/h (1 Bft)
08.12.2009 00:00 5,5 C 98 % 1008,0 hPa 0,2 l/m SO 0,9 km/h (0 Bft)
08.12.2009 01:00 5,4 C 98 % 1007,6 hPa 0,4 l/m W-SW 0,9 km/h (0 Bft)
08.12.2009 02:00 6,3 C 99 % 1008,5 hPa 1,6 l/m W 18,6 km/h (3 Bft)
08.12.2009 03:00 6,7 C 99 % 1009,0 hPa 2,2 l/m W-SW 12,1 km/h (2 Bft)
08.12.2009 04:00 6,7 C 98 % 1008,7 hPa 0,8 l/m SW 14,6 km/h (3 Bft)
08.12.2009 05:00 6,3 C 96 % 1008,5 hPa 0,2 l/m W-SW 18,0 km/h (3 Bft)
08.12.2009 06:00 6,1 C 96 % 1009,3 hPa 0,0 l/m W-SW 18,9 km/h (3 Bft)
08.12.2009 07:00 5,8 C 91 % 1011,0 hPa 0,0 l/m W-SW 21,5 km/h (4 Bft)
08.12.2009 08:00 5,1 C 92 % 1012,8 hPa 0,4 l/m W-SW 26,7 km/h (4 Bft)
08.12.2009 09:00 4,8 C 93 % 1014,1 hPa 0,0 l/m W 20,6 km/h (4 Bft)
08.12.2009 10:00 4,8 C 91 % 1015,1 hPa 0,0 l/m W-SW 26,4 km/h (4 Bft)
08.12.2009 11:00 5,2 C 87 % 1015,3 hPa 0,0 l/m W 26,5 km/h (4 Bft)
08.12.2009 12:00 6,2 C 82 % 1015,2 hPa 0,2 l/m W-NW 23,5 km/h (4 Bft)
08.12.2009 13:00 6,4 C 78 % 1015,6 hPa 0,0 l/m W-SW 24,0 km/h (4 Bft)
08.12.2009 14:00 6,1 C 78 % 1015,8 hPa 0,0 l/m W-SW 18,1 km/h (3 Bft)
08.12.2009 15:00 5,6 C 79 % 1016,5 hPa 0,0 l/m W-SW 23,4 km/h (4 Bft)
08.12.2009 16:00 5,0 C 82 % 1017,2 hPa 0,0 l/m W-SW 16,2 km/h (3 Bft)
08.12.2009 17:00 4,1 C 85 % 1017,7 hPa 0,0 l/m W-SW 18,4 km/h (3 Bft)
08.12.2009 18:00 3,9 C 85 % 1018,1 hPa 0,0 l/m W-SW 16,5 km/h (3 Bft)
08.12.2009 19:00 4,3 C 84 % 1018,6 hPa 0,0 l/m SW 14,8 km/h (3 Bft)
08.12.2009 20:00 4,4 C 83 % 1019,0 hPa 0,0 l/m W-SW 20,1 km/h (4 Bft)
08.12.2009 21:00 4,3 C 82 % 1019,5 hPa 0,0 l/m W-SW 18,4 km/h (3 Bft)
08.12.2009 22:00 4,3 C 83 % 1020,4 hPa 0,0 l/m W 16,2 km/h (3 Bft)
08.12.2009 23:00 3,9 C 87 % 1021,0 hPa 0,4 l/m W 12,1 km/h (2 Bft)
09.12.2009 00:00 3,2 C 91 % 1021,2 hPa 0,0 l/m W-SW 9,5 km/h (2 Bft)
09.12.2009 01:00 2,8 C 93 % 1021,9 hPa 0,0 l/m SW 4,9 km/h (1 Bft)
09.12.2009 02:00 2,6 C 94 % 1022,6 hPa 0,0 l/m W-SW 6,8 km/h (2 Bft)
09.12.2009 03:00 3,0 C 93 % 1023,0 hPa 0,0 l/m SW 7,6 km/h (2 Bft)
09.12.2009 04:00 2,8 C 94 % 1023,6 hPa 0,2 l/m S-SW 5,6 km/h (1 Bft)
09.12.2009 05:00 2,7 C 95 % 1024,0 hPa 0,0 l/m SW 6,8 km/h (2 Bft)
09.12.2009 06:00 2,7 C 96 % 1024,8 hPa 0,0 l/m S-SW 8,6 km/h (2 Bft)
09.12.2009 07:00 2,6 C 95 % 1025,4 hPa 0,0 l/m S-SW 8,0 km/h (2 Bft)
09.12.2009 08:00 2,0 C 95 % 1026,0 hPa 0,0 l/m S 4,4 km/h (1 Bft)
09.12.2009 09:00 1,8 C 97 % 1026,5 hPa 0,0 l/m S 4,1 km/h (1 Bft)
09.12.2009 10:00 3,6 C 93 % 1026,6 hPa 0,0 l/m SW 8,7 km/h (2 Bft)
09.12.2009 11:00 5,3 C 86 % 1026,6 hPa 0,0 l/m S-SW 11,4 km/h (2 Bft)
09.12.2009 12:00 6,3 C 82 % 1026,3 hPa 0,0 l/m SW 10,1 km/h (2 Bft)
09.12.2009 13:00 7,1 C 75 % 1026,1 hPa 0,0 l/m SW 10,2 km/h (2 Bft)
09.12.2009 14:00 7,1 C 73 % 1026,2 hPa 0,0 l/m SW 8,4 km/h (2 Bft)
09.12.2009 15:00 6,4 C 74 % 1026,4 hPa 0,0 l/m SW 4,8 km/h (1 Bft)
09.12.2009 16:00 3,9 C 84 % 1026,8 hPa 0,0 l/m N 0,4 km/h (0 Bft)
09.12.2009 17:00 1,9 C 91 % 1027,2 hPa 0,0 l/m N 0,0 km/h (0 Bft)
09.12.2009 18:00 0,9 C 94 % 1027,5 hPa 0,0 l/m N 0,0 km/h (0 Bft)
09.12.2009 19:00 -0,0 C 95 % 1027,7 hPa 0,0 l/m N 0,0 km/h (0 Bft)
09.12.2009 20:00 -0,5 C 96 % 1027,9 hPa 0,0 l/m N 0,0 km/h (0 Bft)
09.12.2009 21:00 -0,9 C 96 % 1028,0 hPa 0,0 l/m N 0,0 km/h (0 Bft)
09.12.2009 22:00 -1,3 C 96 % 1028,3 hPa 0,0 l/m N 0,1 km/h (0 Bft)
09.12.2009 23:00 -1,5 C 96 % 1028,2 hPa 0,0 l/m N 0,3 km/h (0 Bft)
10.12.2009 00:00 -1,5 C 97 % 1028,1 hPa 0,0 l/m N 0,8 km/h (0 Bft)
10.12.2009 01:00 -1,7 C 97 % 1027,8 hPa 0,0 l/m N 0,0 km/h (0 Bft)
10.12.2009 02:00 -1,6 C 97 % 1027,8 hPa 0,0 l/m N 0,9 km/h (0 Bft)
10.12.2009 03:00 -1,3 C 97 % 1027,5 hPa 0,0 l/m S-SW 4,1 km/h (1 Bft)
10.12.2009 04:00 -0,6 C 98 % 1027,3 hPa 0,0 l/m S-SW 5,5 km/h (1 Bft)
10.12.2009 05:00 0,2 C 97 % 1026,9 hPa 0,0 l/m S-SW 8,8 km/h (2 Bft)
10.12.2009 06:00 0,8 C 95 % 1026,5 hPa 0,0 l/m SO 9,9 km/h (2 Bft)
10.12.2009 07:00 1,2 C 91 % 1026,3 hPa 0,0 l/m SO 7,1 km/h (2 Bft)
10.12.2009 08:00 1,4 C 90 % 1025,9 hPa 0,0 l/m SO 11,7 km/h (2 Bft)
10.12.2009 09:00 2,0 C 91 % 1025,7 hPa 0,8 l/m SW 14,2 km/h (3 Bft)
10.12.2009 10:00 2,3 C 95 % 1025,8 hPa 1,2 l/m SW 12,1 km/h (2 Bft)
10.12.2009 11:00 3,0 C 96 % 1025,6 hPa 0,2 l/m SW 12,1 km/h (2 Bft)
10.12.2009 12:00 3,2 C 97 % 1025,1 hPa 0,2 l/m SW 14,6 km/h (3 Bft)
10.12.2009 13:00 4,4 C 98 % 1024,8 hPa 0,0 l/m SW 19,2 km/h (3 Bft)
10.12.2009 14:00 5,0 C 96 % 1024,8 hPa 0,0 l/m SW 16,0 km/h (3 Bft)
10.12.2009 15:00 5,4 C 93 % 1025,2 hPa 0,0 l/m S-SW 9,2 km/h (2 Bft)
10.12.2009 16:00 4,6 C 96 % 1025,5 hPa 0,0 l/m SW 10,5 km/h (2 Bft)
10.12.2009 17:00 3,8 C 95 % 1025,6 hPa 0,0 l/m SW 10,3 km/h (2 Bft)
10.12.2009 18:00 3,0 C 96 % 1025,9 hPa 0,0 l/m SW 8,2 km/h (2 Bft)
10.12.2009 19:00 3,2 C 97 % 1025,7 hPa 0,0 l/m SW 13,0 km/h (3 Bft)
10.12.2009 20:00 3,6 C 95 % 1025,6 hPa 0,0 l/m W-SW 10,3 km/h (2 Bft)
10.12.2009 21:00 3,9 C 93 % 1025,5 hPa 0,0 l/m W-SW 12,9 km/h (3 Bft)
10.12.2009 22:00 4,4 C 91 % 1025,4 hPa 0,0 l/m W 16,1 km/h (3 Bft)
10.12.2009 23:00 4,4 C 89 % 1025,2 hPa 0,0 l/m W-SW 16,9 km/h (3 Bft)
11.12.2009 00:00 4,3 C 90 % 1024,6 hPa 0,0 l/m W 16,1 km/h (3 Bft)
11.12.2009 01:00 4,3 C 88 % 1024,3 hPa 0,0 l/m W 19,0 km/h (3 Bft)
11.12.2009 02:00 4,4 C 86 % 1024,2 hPa 0,0 l/m W 20,5 km/h (4 Bft)
11.12.2009 03:00 4,2 C 87 % 1023,9 hPa 0,0 l/m W-NW 19,8 km/h (4 Bft)
11.12.2009 04:00 3,9 C 87 % 1023,3 hPa 0,0 l/m W 21,2 km/h (4 Bft)
11.12.2009 05:00 3,8 C 88 % 1022,8 hPa 0,0 l/m W-SW 19,3 km/h (3 Bft)
11.12.2009 06:00 3,5 C 91 % 1022,1 hPa 0,8 l/m W-SW 22,7 km/h (4 Bft)
11.12.2009 07:00 3,2 C 93 % 1021,6 hPa 1,2 l/m W-NW 24,7 km/h (4 Bft)
11.12.2009 08:00 3,0 C 94 % 1021,3 hPa 1,6 l/m W 23,1 km/h (4 Bft)
11.12.2009 09:00 3,1 C 95 % 1020,9 hPa 2,2 l/m W 21,4 km/h (4 Bft)
11.12.2009 10:00 3,1 C 95 % 1020,6 hPa 1,4 l/m W 19,4 km/h (3 Bft)
11.12.2009 11:00 3,2 C 95 % 1020,5 hPa 0,2 l/m W-NW 21,6 km/h (4 Bft)
11.12.2009 12:00 3,2 C 95 % 1020,5 hPa 1,0 l/m NW 15,3 km/h (3 Bft)
11.12.2009 13:00 2,9 C 95 % 1020,2 hPa 0,4 l/m NW 9,4 km/h (2 Bft)
11.12.2009 14:00 2,7 C 95 % 1020,2 hPa 0,4 l/m N-NW 6,8 km/h (2 Bft)
11.12.2009 15:00 2,6 C 96 % 1020,5 hPa 0,2 l/m N-NO 8,3 km/h (2 Bft)
11.12.2009 16:00 2,3 C 96 % 1021,0 hPa 0,4 l/m N-NW 6,4 km/h (2 Bft)
11.12.2009 17:00 2,2 C 96 % 1021,4 hPa 0,2 l/m N 7,1 km/h (2 Bft)
11.12.2009 18:00 2,1 C 97 % 1021,3 hPa 0,0 l/m N 6,1 km/h (2 Bft)
11.12.2009 19:00 2,0 C 97 % 1021,5 hPa 0,4 l/m N 7,3 km/h (2 Bft)
11.12.2009 20:00 1,9 C 97 % 1021,8 hPa 0,0 l/m N-NO 8,6 km/h (2 Bft)
11.12.2009 21:00 1,9 C 97 % 1022,0 hPa 0,0 l/m NO 8,2 km/h (2 Bft)
11.12.2009 22:00 1,7 C 97 % 1022,1 hPa 0,0 l/m N-NO 11,8 km/h (2 Bft)
11.12.2009 23:00 1,4 C 95 % 1022,0 hPa 0,2 l/m NO 9,0 km/h (2 Bft)
12.12.2009 00:00 1,2 C 96 % 1022,1 hPa 0,0 l/m N-NO 7,2 km/h (2 Bft)
12.12.2009 01:00 0,9 C 97 % 1021,8 hPa 0,0 l/m N-NO 7,1 km/h (2 Bft)
12.12.2009 02:00 0,7 C 96 % 1021,6 hPa 0,0 l/m N-NO 10,2 km/h (2 Bft)
12.12.2009 03:00 0,5 C 97 % 1021,4 hPa 0,0 l/m NO 10,2 km/h (2 Bft)
12.12.2009 04:00 0,3 C 97 % 1021,2 hPa 0,0 l/m O-NO 11,3 km/h (2 Bft)
12.12.2009 05:00 0,2 C 96 % 1020,9 hPa 0,0 l/m NO 14,1 km/h (3 Bft)
12.12.2009 06:00 0,0 C 96 % 1020,8 hPa 0,0 l/m N-NO 14,4 km/h (3 Bft)
12.12.2009 07:00 -0,1 C 96 % 1020,6 hPa 0,0 l/m O-NO 12,0 km/h (2 Bft)
12.12.2009 08:00 -0,2 C 96 % 1020,7 hPa 0,0 l/m O-NO 10,3 km/h (2 Bft)
12.12.2009 09:00 -0,1 C 97 % 1020,7 hPa 0,0 l/m NO 9,9 km/h (2 Bft)
12.12.2009 10:00 0,1 C 97 % 1020,7 hPa 0,0 l/m NO 13,2 km/h (3 Bft)
12.12.2009 11:00 0,4 C 96 % 1020,6 hPa 0,0 l/m O-NO 15,2 km/h (3 Bft)
12.12.2009 12:00 0,4 C 96 % 1020,2 hPa 0,0 l/m O-NO 16,8 km/h (3 Bft)
12.12.2009 13:00 0,5 C 94 % 1019,8 hPa 3,2 l/m O-NO 18,2 km/h (3 Bft)
12.12.2009 14:00 0,4 C 93 % 1019,4 hPa 0,6 l/m NO 17,4 km/h (3 Bft)
12.12.2009 15:00 0,3 C 94 % 1019,5 hPa 0,0 l/m NO 16,5 km/h (3 Bft)
12.12.2009 16:00 0,1 C 95 % 1019,5 hPa 0,0 l/m O-NO 15,6 km/h (3 Bft)
12.12.2009 17:00 -0,0 C 94 % 1019,6 hPa 0,0 l/m O-NO 12,8 km/h (3 Bft)
12.12.2009 18:00 -0,2 C 94 % 1019,6 hPa 0,0 l/m O-NO 12,6 km/h (3 Bft)
12.12.2009 19:00 -0,2 C 95 % 1019,5 hPa 0,0 l/m NO 15,6 km/h (3 Bft)
12.12.2009 20:00 -0,3 C 95 % 1019,5 hPa 0,0 l/m O-NO 14,6 km/h (3 Bft)
12.12.2009 21:00 -0,5 C 96 % 1019,4 hPa 0,6 l/m O-NO 16,9 km/h (3 Bft)
12.12.2009 22:00 -0,6 C 95 % 1019,3 hPa 0,0 l/m NO 16,6 km/h (3 Bft)
12.12.2009 23:00 -0,6 C 94 % 1019,3 hPa 0,0 l/m O-NO 17,6 km/h (3 Bft)
13.12.2009 00:00 -0,7 C 93 % 1019,1 hPa 0,0 l/m O-NO 14,5 km/h (3 Bft)
13.12.2009 01:00 -1,1 C 93 % 1018,8 hPa 0,0 l/m O-NO 16,9 km/h (3 Bft)
13.12.2009 02:00 -1,3 C 93 % 1018,7 hPa 0,0 l/m NO 17,6 km/h (3 Bft)
13.12.2009 03:00 -1,5 C 93 % 1018,3 hPa 0,0 l/m NO 15,0 km/h (3 Bft)
13.12.2009 04:00 -1,6 C 93 % 1017,8 hPa 0,0 l/m NO 13,8 km/h (3 Bft)
13.12.2009 05:00 -1,8 C 93 % 1017,6 hPa 0,0 l/m O-NO 16,8 km/h (3 Bft)
13.12.2009 06:00 -1,9 C 93 % 1017,4 hPa 0,0 l/m O-NO 16,5 km/h (3 Bft)
13.12.2009 07:00 -2,0 C 93 % 1017,5 hPa 0,0 l/m N-NO 15,3 km/h (3 Bft)
13.12.2009 08:00 -2,2 C 92 % 1017,7 hPa 0,0 l/m N-NO 16,0 km/h (3 Bft)
13.12.2009 09:00 -2,3 C 91 % 1017,8 hPa 0,0 l/m NO 17,8 km/h (3 Bft)
13.12.2009 10:00 -2,3 C 91 % 1017,6 hPa 0,0 l/m NO 15,6 km/h (3 Bft)
13.12.2009 11:00 -2,2 C 91 % 1017,5 hPa 0,0 l/m O-NO 17,6 km/h (3 Bft)
13.12.2009 12:00 -2,1 C 91 % 1017,3 hPa 0,0 l/m O-NO 16,9 km/h (3 Bft)
13.12.2009 13:00 -1,8 C 91 % 1016,8 hPa 0,0 l/m O-NO 18,2 km/h (3 Bft)
13.12.2009 14:00 -1,7 C 90 % 1016,6 hPa 0,0 l/m O-NO 15,4 km/h (3 Bft)
13.12.2009 15:00 -1,8 C 90 % 1016,7 hPa 0,0 l/m O-NO 16,5 km/h (3 Bft)
13.12.2009 16:00 -1,8 C 91 % 1016,9 hPa 0,0 l/m NO 16,1 km/h (3 Bft)
13.12.2009 17:00 -2,0 C 89 % 1016,9 hPa 0,0 l/m O-NO 19,2 km/h (3 Bft)
13.12.2009 18:00 -2,2 C 87 % 1017,1 hPa 0,0 l/m NO 18,2 km/h (3 Bft)
13.12.2009 19:00 -2,4 C 87 % 1017,3 hPa 0,0 l/m O-NO 19,3 km/h (3 Bft)
13.12.2009 20:00 -2,6 C 85 % 1017,3 hPa 0,0 l/m O-NO 19,2 km/h (3 Bft)
13.12.2009 21:00 -2,7 C 87 % 1017,3 hPa 0,0 l/m O-NO 17,4 km/h (3 Bft)
13.12.2009 22:00 -2,9 C 88 % 1017,4 hPa 0,0 l/m O-NO 18,0 km/h (3 Bft)
13.12.2009 23:00 -3,1 C 88 % 1017,6 hPa 0,0 l/m O-NO 16,8 km/h (3 Bft)
Min-Datum _ 13.12.09 09.12.09 08.12.09 - - 07.12.09
_ Min-Zeit 23:10 13:55 01:05 - - 09:15
Minimum _ -3,1 C 72 % 1007,4 hPa - - 0,0 km/h (0 Bft)
Max-Datum _ 07.12.09 07.12.09 09.12.09 12.12.09 - 08.12.09
_ Max-Zeit 14:10 16:55 22:40 13:00 - 08:00
Maximum _ 8,7 C 100 % 1028,5 hPa 3,2 l/m - 33,8 km/h
W-SW (5 Bft)
Durchschnitt _ 2,6 C 93 % 1019,8 hPa #28,4 l/m SW 12,2 km/h (2 Bft)